sensor_id;sensor_type;location;lat;lon;timestamp;P1;durP1;ratioP1;P2;durP2;ratioP2
62788;SDS011;48826;42.016;21.454;2022-12-18T00:01:30;6.83;;;4.53;;
62788;SDS011;48826;42.016;21.454;2022-12-18T00:03:58;6.63;;;4.97;;
62788;SDS011;48826;42.016;21.454;2022-12-18T00:06:25;9.23;;;4.63;;
62788;SDS011;48826;42.016;21.454;2022-12-18T00:08:52;9.07;;;5.10;;
62788;SDS011;48826;42.016;21.454;2022-12-18T00:11:21;7.77;;;4.47;;
62788;SDS011;48826;42.016;21.454;2022-12-18T00:13:48;5.53;;;4.93;;
62788;SDS011;48826;42.016;21.454;2022-12-18T00:16:15;6.63;;;5.17;;
62788;SDS011;48826;42.016;21.454;2022-12-18T00:18:45;5.77;;;5.13;;
62788;SDS011;48826;42.016;21.454;2022-12-18T00:21:12;6.10;;;4.20;;
62788;SDS011;48826;42.016;21.454;2022-12-18T00:23:38;7.77;;;4.33;;
62788;SDS011;48826;42.016;21.454;2022-12-18T00:26:06;6.27;;;4.17;;
62788;SDS011;48826;42.016;21.454;2022-12-18T00:28:34;4.63;;;4.10;;
62788;SDS011;48826;42.016;21.454;2022-12-18T00:31:11;5.70;;;3.80;;
62788;SDS011;48826;42.016;21.454;2022-12-18T00:33:39;4.77;;;4.33;;
62788;SDS011;48826;42.016;21.454;2022-12-18T00:36:05;4.80;;;4.40;;
62788;SDS011;48826;42.016;21.454;2022-12-18T00:38:33;7.10;;;4.50;;
62788;SDS011;48826;42.016;21.454;2022-12-18T00:40:59;4.63;;;4.23;;
62788;SDS011;48826;42.016;21.454;2022-12-18T00:43:25;4.90;;;4.40;;
62788;SDS011;48826;42.016;21.454;2022-12-18T00:45:50;5.30;;;4.43;;
62788;SDS011;48826;42.016;21.454;2022-12-18T00:48:16;9.00;;;4.60;;
62788;SDS011;48826;42.016;21.454;2022-12-18T00:50:41;7.03;;;4.20;;
62788;SDS011;48826;42.016;21.454;2022-12-18T00:53:07;5.50;;;4.60;;
62788;SDS011;48826;42.016;21.454;2022-12-18T00:55:36;4.50;;;4.10;;
62788;SDS011;48826;42.016;21.454;2022-12-18T00:58:02;6.40;;;4.50;;
62788;SDS011;48826;42.016;21.454;2022-12-18T01:00:28;4.50;;;4.10;;
62788;SDS011;48826;42.016;21.454;2022-12-18T01:02:53;4.60;;;4.20;;
62788;SDS011;48826;42.016;21.454;2022-12-18T01:05:19;4.57;;;4.13;;
62788;SDS011;48826;42.016;21.454;2022-12-18T01:07:44;5.83;;;4.10;;
62788;SDS011;48826;42.016;21.454;2022-12-18T01:10:10;5.07;;;3.80;;
62788;SDS011;48826;42.016;21.454;2022-12-18T01:12:37;3.90;;;3.50;;
62788;SDS011;48826;42.016;21.454;2022-12-18T01:15:04;4.80;;;4.30;;
62788;SDS011;48826;42.016;21.454;2022-12-18T01:17:31;5.77;;;4.97;;
62788;SDS011;48826;42.016;21.454;2022-12-18T01:19:57;5.37;;;4.83;;
62788;SDS011;48826;42.016;21.454;2022-12-18T01:22:23;4.70;;;4.07;;
62788;SDS011;48826;42.016;21.454;2022-12-18T01:24:48;5.43;;;4.30;;
62788;SDS011;48826;42.016;21.454;2022-12-18T01:27:14;7.83;;;5.30;;
62788;SDS011;48826;42.016;21.454;2022-12-18T01:29:39;6.30;;;4.97;;
62788;SDS011;48826;42.016;21.454;2022-12-18T01:32:05;5.87;;;4.80;;
62788;SDS011;48826;42.016;21.454;2022-12-18T01:34:31;5.00;;;4.33;;
62788;SDS011;48826;42.016;21.454;2022-12-18T01:36:57;7.63;;;5.10;;
62788;SDS011;48826;42.016;21.454;2022-12-18T01:39:23;5.27;;;4.77;;
62788;SDS011;48826;42.016;21.454;2022-12-18T01:41:49;5.07;;;4.37;;
62788;SDS011;48826;42.016;21.454;2022-12-18T01:50:08;4.37;;;3.97;;
62788;SDS011;48826;42.016;21.454;2022-12-18T01:52:34;4.63;;;4.23;;
62788;SDS011;48826;42.016;21.454;2022-12-18T01:55:01;4.40;;;4.00;;
62788;SDS011;48826;42.016;21.454;2022-12-18T01:57:29;4.67;;;3.67;;
62788;SDS011;48826;42.016;21.454;2022-12-18T01:59:57;4.13;;;3.73;;
62788;SDS011;48826;42.016;21.454;2022-12-18T02:02:27;4.40;;;4.00;;
62788;SDS011;48826;42.016;21.454;2022-12-18T02:04:53;5.50;;;4.47;;
62788;SDS011;48826;42.016;21.454;2022-12-18T02:09:54;5.17;;;3.97;;
62788;SDS011;48826;42.016;21.454;2022-12-18T02:12:30;4.80;;;4.03;;
62788;SDS011;48826;42.016;21.454;2022-12-18T02:15:11;4.23;;;3.77;;
62788;SDS011;48826;42.016;21.454;2022-12-18T02:17:46;5.53;;;3.80;;
62788;SDS011;48826;42.016;21.454;2022-12-18T02:20:21;5.30;;;3.40;;
62788;SDS011;48826;42.016;21.454;2022-12-18T02:22:59;4.33;;;3.60;;
62788;SDS011;48826;42.016;21.454;2022-12-18T02:28:32;3.97;;;3.67;;
62788;SDS011;48826;42.016;21.454;2022-12-18T02:31:02;4.27;;;3.70;;
62788;SDS011;48826;42.016;21.454;2022-12-18T02:33:32;4.17;;;3.40;;
62788;SDS011;48826;42.016;21.454;2022-12-18T02:35:59;3.30;;;3.07;;
62788;SDS011;48826;42.016;21.454;2022-12-18T02:38:26;4.40;;;3.53;;
62788;SDS011;48826;42.016;21.454;2022-12-18T02:40:53;3.40;;;3.10;;
62788;SDS011;48826;42.016;21.454;2022-12-18T02:43:20;4.40;;;3.37;;
62788;SDS011;48826;42.016;21.454;2022-12-18T02:45:52;3.43;;;3.13;;
62788;SDS011;48826;42.016;21.454;2022-12-18T02:48:22;3.20;;;3.00;;
62788;SDS011;48826;42.016;21.454;2022-12-18T02:53:28;2.73;;;2.53;;
62788;SDS011;48826;42.016;21.454;2022-12-18T02:56:02;3.57;;;3.30;;
62788;SDS011;48826;42.016;21.454;2022-12-18T03:06:54;3.27;;;2.83;;
62788;SDS011;48826;42.016;21.454;2022-12-18T03:09:33;5.40;;;3.20;;
62788;SDS011;48826;42.016;21.454;2022-12-18T03:12:04;3.33;;;2.77;;
62788;SDS011;48826;42.016;21.454;2022-12-18T03:14:48;2.93;;;2.63;;
62788;SDS011;48826;42.016;21.454;2022-12-18T03:17:17;3.40;;;3.10;;
62788;SDS011;48826;42.016;21.454;2022-12-18T03:19:48;3.07;;;2.77;;
62788;SDS011;48826;42.016;21.454;2022-12-18T03:22:16;3.40;;;3.10;;
62788;SDS011;48826;42.016;21.454;2022-12-18T03:24:43;3.20;;;3.00;;
62788;SDS011;48826;42.016;21.454;2022-12-18T03:27:12;3.27;;;3.07;;
62788;SDS011;48826;42.016;21.454;2022-12-18T03:29:43;3.03;;;2.83;;
62788;SDS011;48826;42.016;21.454;2022-12-18T03:32:33;3.27;;;2.90;;
62788;SDS011;48826;42.016;21.454;2022-12-18T03:35:05;2.87;;;2.53;;
62788;SDS011;48826;42.016;21.454;2022-12-18T03:37:32;3.27;;;2.83;;
62788;SDS011;48826;42.016;21.454;2022-12-18T03:39:58;3.13;;;2.83;;
62788;SDS011;48826;42.016;21.454;2022-12-18T03:42:36;3.40;;;2.90;;
62788;SDS011;48826;42.016;21.454;2022-12-18T03:45:11;2.57;;;2.37;;
62788;SDS011;48826;42.016;21.454;2022-12-18T03:50:49;2.70;;;2.43;;
62788;SDS011;48826;42.016;21.454;2022-12-18T03:53:24;2.87;;;2.60;;
62788;SDS011;48826;42.016;21.454;2022-12-18T03:55:56;3.30;;;2.60;;
62788;SDS011;48826;42.016;21.454;2022-12-18T03:58:25;3.13;;;2.73;;
62788;SDS011;48826;42.016;21.454;2022-12-18T04:00:52;3.47;;;3.17;;
62788;SDS011;48826;42.016;21.454;2022-12-18T04:03:21;3.90;;;2.73;;
62788;SDS011;48826;42.016;21.454;2022-12-18T04:05:49;4.03;;;2.73;;
62788;SDS011;48826;42.016;21.454;2022-12-18T04:08:17;2.93;;;2.47;;
62788;SDS011;48826;42.016;21.454;2022-12-18T04:10:44;2.63;;;2.40;;
62788;SDS011;48826;42.016;21.454;2022-12-18T04:13:10;3.27;;;2.97;;
62788;SDS011;48826;42.016;21.454;2022-12-18T04:15:36;2.83;;;2.63;;
62788;SDS011;48826;42.016;21.454;2022-12-18T04:18:02;2.60;;;2.40;;
62788;SDS011;48826;42.016;21.454;2022-12-18T04:20:28;5.17;;;2.83;;
62788;SDS011;48826;42.016;21.454;2022-12-18T04:22:54;5.47;;;3.50;;
62788;SDS011;48826;42.016;21.454;2022-12-18T04:25:19;6.40;;;3.37;;
62788;SDS011;48826;42.016;21.454;2022-12-18T04:27:45;3.77;;;3.07;;
62788;SDS011;48826;42.016;21.454;2022-12-18T04:30:10;9.67;;;3.70;;
62788;SDS011;48826;42.016;21.454;2022-12-18T04:32:36;5.73;;;3.10;;
62788;SDS011;48826;42.016;21.454;2022-12-18T04:35:02;9.87;;;3.63;;
62788;SDS011;48826;42.016;21.454;2022-12-18T04:37:29;6.47;;;3.50;;
62788;SDS011;48826;42.016;21.454;2022-12-18T04:39:55;9.43;;;3.70;;
62788;SDS011;48826;42.016;21.454;2022-12-18T04:42:20;7.27;;;3.27;;
62788;SDS011;48826;42.016;21.454;2022-12-18T04:44:46;4.83;;;3.10;;
62788;SDS011;48826;42.016;21.454;2022-12-18T04:47:11;5.03;;;3.40;;
62788;SDS011;48826;42.016;21.454;2022-12-18T04:49:37;5.60;;;3.20;;
62788;SDS011;48826;42.016;21.454;2022-12-18T04:52:03;4.90;;;2.57;;
62788;SDS011;48826;42.016;21.454;2022-12-18T04:54:28;4.37;;;2.87;;
62788;SDS011;48826;42.016;21.454;2022-12-18T04:56:54;5.00;;;2.87;;
62788;SDS011;48826;42.016;21.454;2022-12-18T04:59:19;2.83;;;2.40;;
62788;SDS011;48826;42.016;21.454;2022-12-18T05:01:45;3.03;;;2.40;;
62788;SDS011;48826;42.016;21.454;2022-12-18T05:04:10;3.60;;;2.53;;
62788;SDS011;48826;42.016;21.454;2022-12-18T05:06:36;2.77;;;2.10;;
62788;SDS011;48826;42.016;21.454;2022-12-18T05:09:01;2.40;;;2.20;;
62788;SDS011;48826;42.016;21.454;2022-12-18T05:11:27;2.60;;;2.50;;
62788;SDS011;48826;42.016;21.454;2022-12-18T05:13:52;2.83;;;2.53;;
62788;SDS011;48826;42.016;21.454;2022-12-18T05:16:21;3.17;;;2.30;;
62788;SDS011;48826;42.016;21.454;2022-12-18T05:18:46;3.00;;;2.33;;
62788;SDS011;48826;42.016;21.454;2022-12-18T05:21:12;2.50;;;2.30;;
62788;SDS011;48826;42.016;21.454;2022-12-18T05:23:37;4.23;;;3.10;;
62788;SDS011;48826;42.016;21.454;2022-12-18T05:26:04;2.83;;;2.63;;
62788;SDS011;48826;42.016;21.454;2022-12-18T05:28:31;5.43;;;2.50;;
62788;SDS011;48826;42.016;21.454;2022-12-18T05:30:59;3.33;;;3.00;;
62788;SDS011;48826;42.016;21.454;2022-12-18T05:33:28;3.50;;;3.20;;
62788;SDS011;48826;42.016;21.454;2022-12-18T05:35:56;2.53;;;2.33;;
62788;SDS011;48826;42.016;21.454;2022-12-18T05:38:29;3.40;;;3.10;;
62788;SDS011;48826;42.016;21.454;2022-12-18T05:40:55;3.50;;;3.20;;
62788;SDS011;48826;42.016;21.454;2022-12-18T05:43:22;2.80;;;2.60;;
62788;SDS011;48826;42.016;21.454;2022-12-18T05:45:48;3.00;;;2.80;;
62788;SDS011;48826;42.016;21.454;2022-12-18T05:48:15;2.80;;;2.60;;
62788;SDS011;48826;42.016;21.454;2022-12-18T05:50:42;3.37;;;3.07;;
62788;SDS011;48826;42.016;21.454;2022-12-18T05:53:10;3.70;;;2.80;;
62788;SDS011;48826;42.016;21.454;2022-12-18T05:55:37;3.93;;;3.43;;
62788;SDS011;48826;42.016;21.454;2022-12-18T05:58:04;6.23;;;4.20;;
62788;SDS011;48826;42.016;21.454;2022-12-18T06:00:31;6.70;;;4.20;;
62788;SDS011;48826;42.016;21.454;2022-12-18T06:02:58;8.97;;;4.47;;
62788;SDS011;48826;42.016;21.454;2022-12-18T06:05:24;10.10;;;4.43;;
62788;SDS011;48826;42.016;21.454;2022-12-18T06:07:49;8.97;;;4.77;;
62788;SDS011;48826;42.016;21.454;2022-12-18T06:10:15;9.50;;;4.97;;
62788;SDS011;48826;42.016;21.454;2022-12-18T06:12:41;12.17;;;4.90;;
62788;SDS011;48826;42.016;21.454;2022-12-18T06:15:06;10.83;;;5.33;;
62788;SDS011;48826;42.016;21.454;2022-12-18T06:17:33;12.77;;;5.40;;
62788;SDS011;48826;42.016;21.454;2022-12-18T06:19:59;15.93;;;5.80;;
62788;SDS011;48826;42.016;21.454;2022-12-18T06:22:26;15.13;;;6.03;;
62788;SDS011;48826;42.016;21.454;2022-12-18T06:24:52;12.37;;;5.53;;
62788;SDS011;48826;42.016;21.454;2022-12-18T06:27:17;13.30;;;5.90;;
62788;SDS011;48826;42.016;21.454;2022-12-18T06:29:43;10.97;;;5.07;;
62788;SDS011;48826;42.016;21.454;2022-12-18T06:32:08;10.87;;;4.93;;
62788;SDS011;48826;42.016;21.454;2022-12-18T06:34:34;12.57;;;5.83;;
62788;SDS011;48826;42.016;21.454;2022-12-18T06:37:02;11.60;;;5.63;;
62788;SDS011;48826;42.016;21.454;2022-12-18T06:39:27;10.90;;;5.63;;
62788;SDS011;48826;42.016;21.454;2022-12-18T06:41:53;11.57;;;4.63;;
62788;SDS011;48826;42.016;21.454;2022-12-18T06:44:19;11.23;;;5.43;;
62788;SDS011;48826;42.016;21.454;2022-12-18T06:46:44;10.37;;;5.43;;
62788;SDS011;48826;42.016;21.454;2022-12-18T06:49:10;7.80;;;4.90;;
62788;SDS011;48826;42.016;21.454;2022-12-18T06:51:36;9.57;;;5.03;;
62788;SDS011;48826;42.016;21.454;2022-12-18T06:54:01;6.83;;;4.03;;
62788;SDS011;48826;42.016;21.454;2022-12-18T06:56:27;9.60;;;5.10;;
62788;SDS011;48826;42.016;21.454;2022-12-18T06:58:53;5.93;;;4.43;;
62788;SDS011;48826;42.016;21.454;2022-12-18T07:01:19;7.17;;;4.40;;
62788;SDS011;48826;42.016;21.454;2022-12-18T07:03:45;7.77;;;4.67;;
62788;SDS011;48826;42.016;21.454;2022-12-18T07:06:15;6.10;;;4.40;;
62788;SDS011;48826;42.016;21.454;2022-12-18T07:08:43;5.53;;;4.13;;
62788;SDS011;48826;42.016;21.454;2022-12-18T07:11:09;5.40;;;4.47;;
62788;SDS011;48826;42.016;21.454;2022-12-18T07:13:35;5.93;;;4.80;;
62788;SDS011;48826;42.016;21.454;2022-12-18T07:18:36;7.37;;;4.80;;
62788;SDS011;48826;42.016;21.454;2022-12-18T07:21:02;8.97;;;5.13;;
62788;SDS011;48826;42.016;21.454;2022-12-18T07:23:29;5.83;;;4.30;;
62788;SDS011;48826;42.016;21.454;2022-12-18T07:25:59;4.40;;;4.00;;
62788;SDS011;48826;42.016;21.454;2022-12-18T07:28:27;6.93;;;4.50;;
62788;SDS011;48826;42.016;21.454;2022-12-18T07:30:52;4.50;;;4.03;;
62788;SDS011;48826;42.016;21.454;2022-12-18T07:33:18;4.27;;;3.87;;
62788;SDS011;48826;42.016;21.454;2022-12-18T07:35:43;8.23;;;4.40;;
62788;SDS011;48826;42.016;21.454;2022-12-18T07:38:09;4.30;;;3.90;;
62788;SDS011;48826;42.016;21.454;2022-12-18T07:40:34;5.10;;;4.13;;
62788;SDS011;48826;42.016;21.454;2022-12-18T07:43:00;5.60;;;3.77;;
62788;SDS011;48826;42.016;21.454;2022-12-18T07:45:25;4.50;;;4.10;;
62788;SDS011;48826;42.016;21.454;2022-12-18T07:47:51;4.83;;;3.83;;
62788;SDS011;48826;42.016;21.454;2022-12-18T07:50:16;4.50;;;3.97;;
62788;SDS011;48826;42.016;21.454;2022-12-18T07:52:42;5.00;;;3.73;;
62788;SDS011;48826;42.016;21.454;2022-12-18T07:55:07;5.67;;;4.13;;
62788;SDS011;48826;42.016;21.454;2022-12-18T07:57:33;5.03;;;4.27;;
62788;SDS011;48826;42.016;21.454;2022-12-18T07:59:59;5.23;;;3.53;;
62788;SDS011;48826;42.016;21.454;2022-12-18T08:02:24;4.37;;;3.97;;
62788;SDS011;48826;42.016;21.454;2022-12-18T08:04:50;4.57;;;3.53;;
62788;SDS011;48826;42.016;21.454;2022-12-18T08:07:15;5.70;;;3.90;;
62788;SDS011;48826;42.016;21.454;2022-12-18T08:09:41;6.73;;;4.37;;
62788;SDS011;48826;42.016;21.454;2022-12-18T08:12:06;5.80;;;4.40;;
62788;SDS011;48826;42.016;21.454;2022-12-18T08:14:32;5.20;;;4.63;;
62788;SDS011;48826;42.016;21.454;2022-12-18T08:16:57;7.60;;;4.60;;
62788;SDS011;48826;42.016;21.454;2022-12-18T08:19:23;5.07;;;4.47;;
62788;SDS011;48826;42.016;21.454;2022-12-18T08:21:48;6.03;;;4.13;;
62788;SDS011;48826;42.016;21.454;2022-12-18T08:24:14;4.47;;;4.00;;
62788;SDS011;48826;42.016;21.454;2022-12-18T08:26:39;4.53;;;3.80;;
62788;SDS011;48826;42.016;21.454;2022-12-18T08:29:05;5.47;;;4.30;;
62788;SDS011;48826;42.016;21.454;2022-12-18T08:31:31;5.40;;;4.10;;
62788;SDS011;48826;42.016;21.454;2022-12-18T08:33:57;5.47;;;4.57;;
62788;SDS011;48826;42.016;21.454;2022-12-18T08:36:22;6.73;;;4.67;;
62788;SDS011;48826;42.016;21.454;2022-12-18T08:38:49;6.53;;;4.30;;
62788;SDS011;48826;42.016;21.454;2022-12-18T08:41:15;5.87;;;4.50;;
62788;SDS011;48826;42.016;21.454;2022-12-18T08:43:42;5.53;;;4.43;;
62788;SDS011;48826;42.016;21.454;2022-12-18T08:46:31;6.97;;;5.00;;
62788;SDS011;48826;42.016;21.454;2022-12-18T08:49:00;5.53;;;5.07;;
62788;SDS011;48826;42.016;21.454;2022-12-18T08:51:25;8.00;;;5.07;;
62788;SDS011;48826;42.016;21.454;2022-12-18T08:53:51;7.20;;;4.90;;
62788;SDS011;48826;42.016;21.454;2022-12-18T08:56:16;6.77;;;4.93;;
62788;SDS011;48826;42.016;21.454;2022-12-18T08:58:42;6.33;;;5.03;;
62788;SDS011;48826;42.016;21.454;2022-12-18T09:01:09;6.67;;;5.50;;
62788;SDS011;48826;42.016;21.454;2022-12-18T09:03:36;10.07;;;5.73;;
62788;SDS011;48826;42.016;21.454;2022-12-18T09:06:02;7.77;;;6.03;;
62788;SDS011;48826;42.016;21.454;2022-12-18T09:08:28;7.80;;;7.00;;
62788;SDS011;48826;42.016;21.454;2022-12-18T09:10:54;8.27;;;6.43;;
62788;SDS011;48826;42.016;21.454;2022-12-18T09:13:20;9.73;;;7.10;;
62788;SDS011;48826;42.016;21.454;2022-12-18T09:15:47;13.00;;;7.63;;
62788;SDS011;48826;42.016;21.454;2022-12-18T09:18:16;9.17;;;6.93;;
62788;SDS011;48826;42.016;21.454;2022-12-18T09:20:43;10.47;;;7.37;;
62788;SDS011;48826;42.016;21.454;2022-12-18T09:23:09;10.13;;;7.17;;
62788;SDS011;48826;42.016;21.454;2022-12-18T09:25:36;9.67;;;6.87;;
62788;SDS011;48826;42.016;21.454;2022-12-18T09:28:03;9.37;;;7.37;;
62788;SDS011;48826;42.016;21.454;2022-12-18T09:30:30;10.77;;;7.73;;
62788;SDS011;48826;42.016;21.454;2022-12-18T09:32:58;9.23;;;7.57;;
62788;SDS011;48826;42.016;21.454;2022-12-18T09:35:24;10.43;;;7.00;;
62788;SDS011;48826;42.016;21.454;2022-12-18T09:37:49;8.97;;;7.50;;
62788;SDS011;48826;42.016;21.454;2022-12-18T09:40:19;8.80;;;7.07;;
62788;SDS011;48826;42.016;21.454;2022-12-18T09:42:55;9.37;;;7.80;;
62788;SDS011;48826;42.016;21.454;2022-12-18T09:45:28;8.17;;;7.30;;
62788;SDS011;48826;42.016;21.454;2022-12-18T09:48:04;8.70;;;6.83;;
62788;SDS011;48826;42.016;21.454;2022-12-18T09:50:35;9.87;;;6.60;;
62788;SDS011;48826;42.016;21.454;2022-12-18T09:53:05;10.63;;;7.90;;
62788;SDS011;48826;42.016;21.454;2022-12-18T09:55:39;7.50;;;6.80;;
62788;SDS011;48826;42.016;21.454;2022-12-18T10:00:41;8.70;;;6.93;;
62788;SDS011;48826;42.016;21.454;2022-12-18T10:03:14;9.27;;;7.70;;
62788;SDS011;48826;42.016;21.454;2022-12-18T10:06:23;9.30;;;7.93;;
62788;SDS011;48826;42.016;21.454;2022-12-18T10:08:45;10.33;;;7.67;;
62788;SDS011;48826;42.016;21.454;2022-12-18T10:11:40;11.37;;;8.23;;
62788;SDS011;48826;42.016;21.454;2022-12-18T10:19:47;10.17;;;8.00;;
62788;SDS011;48826;42.016;21.454;2022-12-18T10:27:30;8.60;;;7.77;;
62788;SDS011;48826;42.016;21.454;2022-12-18T10:29:56;8.90;;;8.00;;
62788;SDS011;48826;42.016;21.454;2022-12-18T10:32:26;20.17;;;9.47;;
62788;SDS011;48826;42.016;21.454;2022-12-18T10:34:55;13.97;;;8.70;;
62788;SDS011;48826;42.016;21.454;2022-12-18T10:37:23;10.20;;;8.33;;
62788;SDS011;48826;42.016;21.454;2022-12-18T10:40:11;14.43;;;9.20;;
62788;SDS011;48826;42.016;21.454;2022-12-18T10:42:38;11.77;;;8.60;;
62788;SDS011;48826;42.016;21.454;2022-12-18T10:45:10;18.37;;;9.43;;
62788;SDS011;48826;42.016;21.454;2022-12-18T10:47:57;14.13;;;10.50;;
62788;SDS011;48826;42.016;21.454;2022-12-18T10:50:28;15.57;;;10.03;;
62788;SDS011;48826;42.016;21.454;2022-12-18T10:52:59;15.80;;;11.23;;
62788;SDS011;48826;42.016;21.454;2022-12-18T10:55:34;17.83;;;11.20;;
62788;SDS011;48826;42.016;21.454;2022-12-18T11:01:07;18.03;;;11.37;;
62788;SDS011;48826;42.016;21.454;2022-12-18T11:06:03;13.60;;;10.43;;
62788;SDS011;48826;42.016;21.454;2022-12-18T11:08:43;10.83;;;9.33;;
62788;SDS011;48826;42.016;21.454;2022-12-18T11:11:22;11.83;;;8.87;;
62788;SDS011;48826;42.016;21.454;2022-12-18T11:13:54;10.47;;;8.60;;
62788;SDS011;48826;42.016;21.454;2022-12-18T11:16:31;13.53;;;8.43;;
62788;SDS011;48826;42.016;21.454;2022-12-18T11:19:12;13.37;;;8.67;;
62788;SDS011;48826;42.016;21.454;2022-12-18T11:21:45;8.77;;;7.87;;
62788;SDS011;48826;42.016;21.454;2022-12-18T11:24:20;11.17;;;8.90;;
62788;SDS011;48826;42.016;21.454;2022-12-18T11:26:59;9.93;;;7.90;;
62788;SDS011;48826;42.016;21.454;2022-12-18T11:29:34;13.30;;;8.60;;
62788;SDS011;48826;42.016;21.454;2022-12-18T11:32:13;11.43;;;7.67;;
62788;SDS011;48826;42.016;21.454;2022-12-18T11:34:45;10.63;;;8.20;;
62788;SDS011;48826;42.016;21.454;2022-12-18T11:37:16;11.27;;;7.57;;
62788;SDS011;48826;42.016;21.454;2022-12-18T11:39:52;12.93;;;9.37;;
62788;SDS011;48826;42.016;21.454;2022-12-18T11:48:01;9.60;;;7.40;;
62788;SDS011;48826;42.016;21.454;2022-12-18T11:50:37;12.37;;;7.93;;
62788;SDS011;48826;42.016;21.454;2022-12-18T11:53:17;13.27;;;9.90;;
62788;SDS011;48826;42.016;21.454;2022-12-18T11:55:47;19.47;;;12.87;;
62788;SDS011;48826;42.016;21.454;2022-12-18T11:59:20;29.50;;;19.80;;
62788;SDS011;48826;42.016;21.454;2022-12-18T12:10:07;21.60;;;15.83;;
62788;SDS011;48826;42.016;21.454;2022-12-18T12:12:55;20.27;;;14.67;;
62788;SDS011;48826;42.016;21.454;2022-12-18T12:16:32;20.73;;;14.60;;
62788;SDS011;48826;42.016;21.454;2022-12-18T12:40:24;13.07;;;10.10;;
62788;SDS011;48826;42.016;21.454;2022-12-18T12:42:58;12.80;;;9.30;;
62788;SDS011;48826;42.016;21.454;2022-12-18T12:48:55;11.93;;;8.80;;
62788;SDS011;48826;42.016;21.454;2022-12-18T12:51:28;14.10;;;8.63;;
62788;SDS011;48826;42.016;21.454;2022-12-18T12:53:59;14.13;;;9.90;;
62788;SDS011;48826;42.016;21.454;2022-12-18T12:59:52;12.63;;;9.83;;
62788;SDS011;48826;42.016;21.454;2022-12-18T13:02:30;10.73;;;8.70;;
62788;SDS011;48826;42.016;21.454;2022-12-18T13:05:16;13.57;;;9.90;;
62788;SDS011;48826;42.016;21.454;2022-12-18T13:13:03;15.80;;;10.23;;
62788;SDS011;48826;42.016;21.454;2022-12-18T13:20:44;15.50;;;10.63;;
62788;SDS011;48826;42.016;21.454;2022-12-18T13:25:54;18.03;;;12.10;;
62788;SDS011;48826;42.016;21.454;2022-12-18T13:28:26;18.40;;;10.73;;
62788;SDS011;48826;42.016;21.454;2022-12-18T13:31:11;19.70;;;13.53;;
62788;SDS011;48826;42.016;21.454;2022-12-18T13:34:39;19.07;;;12.57;;
62788;SDS011;48826;42.016;21.454;2022-12-18T13:36:50;17.03;;;11.33;;
62788;SDS011;48826;42.016;21.454;2022-12-18T13:41:46;13.90;;;10.73;;
62788;SDS011;48826;42.016;21.454;2022-12-18T13:47:05;18.80;;;12.20;;
62788;SDS011;48826;42.016;21.454;2022-12-18T13:49:56;20.33;;;12.77;;
62788;SDS011;48826;42.016;21.454;2022-12-18T13:52:23;15.90;;;11.57;;
62788;SDS011;48826;42.016;21.454;2022-12-18T13:54:52;18.60;;;12.23;;
62788;SDS011;48826;42.016;21.454;2022-12-18T13:59:56;18.10;;;11.67;;
62788;SDS011;48826;42.016;21.454;2022-12-18T14:02:24;15.87;;;11.33;;
62788;SDS011;48826;42.016;21.454;2022-12-18T14:04:51;17.13;;;11.47;;
62788;SDS011;48826;42.016;21.454;2022-12-18T14:07:22;17.33;;;12.67;;
62788;SDS011;48826;42.016;21.454;2022-12-18T14:09:51;14.73;;;10.87;;
62788;SDS011;48826;42.016;21.454;2022-12-18T14:12:22;17.77;;;11.20;;
62788;SDS011;48826;42.016;21.454;2022-12-18T14:15:22;18.93;;;12.20;;
62788;SDS011;48826;42.016;21.454;2022-12-18T14:17:57;19.77;;;12.17;;
62788;SDS011;48826;42.016;21.454;2022-12-18T14:20:29;16.63;;;12.13;;
62788;SDS011;48826;42.016;21.454;2022-12-18T14:22:58;16.87;;;12.40;;
62788;SDS011;48826;42.016;21.454;2022-12-18T14:25:28;16.57;;;10.90;;
62788;SDS011;48826;42.016;21.454;2022-12-18T14:30:39;16.27;;;10.50;;
62788;SDS011;48826;42.016;21.454;2022-12-18T14:33:09;15.70;;;11.37;;
62788;SDS011;48826;42.016;21.454;2022-12-18T14:35:37;13.33;;;10.50;;
62788;SDS011;48826;42.016;21.454;2022-12-18T14:38:09;13.23;;;10.23;;
62788;SDS011;48826;42.016;21.454;2022-12-18T14:40:36;12.63;;;10.23;;
62788;SDS011;48826;42.016;21.454;2022-12-18T14:43:02;18.60;;;12.13;;
62788;SDS011;48826;42.016;21.454;2022-12-18T14:45:37;19.63;;;12.43;;
62788;SDS011;48826;42.016;21.454;2022-12-18T14:55:59;18.83;;;11.20;;
62788;SDS011;48826;42.016;21.454;2022-12-18T14:58:26;15.33;;;11.13;;
62788;SDS011;48826;42.016;21.454;2022-12-18T15:00:51;15.23;;;10.43;;
62788;SDS011;48826;42.016;21.454;2022-12-18T15:03:20;18.00;;;11.47;;
62788;SDS011;48826;42.016;21.454;2022-12-18T15:05:46;18.80;;;12.30;;
62788;SDS011;48826;42.016;21.454;2022-12-18T15:11:33;16.60;;;11.20;;
62788;SDS011;48826;42.016;21.454;2022-12-18T15:16:55;15.83;;;11.00;;
62788;SDS011;48826;42.016;21.454;2022-12-18T15:19:22;17.23;;;11.37;;
62788;SDS011;48826;42.016;21.454;2022-12-18T15:22:02;16.33;;;11.47;;
62788;SDS011;48826;42.016;21.454;2022-12-18T15:24:29;18.07;;;11.57;;
62788;SDS011;48826;42.016;21.454;2022-12-18T15:26:57;14.67;;;11.43;;
62788;SDS011;48826;42.016;21.454;2022-12-18T15:29:23;14.60;;;10.40;;
62788;SDS011;48826;42.016;21.454;2022-12-18T15:32:03;15.77;;;10.93;;
62788;SDS011;48826;42.016;21.454;2022-12-18T15:34:31;17.73;;;10.63;;
62788;SDS011;48826;42.016;21.454;2022-12-18T15:36:59;18.97;;;11.90;;
62788;SDS011;48826;42.016;21.454;2022-12-18T15:39:24;15.73;;;11.13;;
62788;SDS011;48826;42.016;21.454;2022-12-18T15:41:50;16.40;;;11.23;;
62788;SDS011;48826;42.016;21.454;2022-12-18T15:44:34;15.70;;;11.23;;
62788;SDS011;48826;42.016;21.454;2022-12-18T15:47:00;15.13;;;11.33;;
62788;SDS011;48826;42.016;21.454;2022-12-18T15:49:25;18.03;;;11.50;;
62788;SDS011;48826;42.016;21.454;2022-12-18T15:51:54;15.10;;;11.23;;
62788;SDS011;48826;42.016;21.454;2022-12-18T15:54:23;17.53;;;10.87;;
62788;SDS011;48826;42.016;21.454;2022-12-18T15:57:27;16.53;;;12.00;;
62788;SDS011;48826;42.016;21.454;2022-12-18T15:59:54;14.83;;;10.37;;
62788;SDS011;48826;42.016;21.454;2022-12-18T16:02:22;16.30;;;11.37;;
62788;SDS011;48826;42.016;21.454;2022-12-18T16:04:49;15.13;;;10.57;;
62788;SDS011;48826;42.016;21.454;2022-12-18T16:07:16;16.67;;;11.47;;
62788;SDS011;48826;42.016;21.454;2022-12-18T16:09:41;17.77;;;10.33;;
62788;SDS011;48826;42.016;21.454;2022-12-18T16:12:13;13.50;;;10.70;;
62788;SDS011;48826;42.016;21.454;2022-12-18T16:14:46;18.10;;;11.80;;
62788;SDS011;48826;42.016;21.454;2022-12-18T16:17:12;18.93;;;11.10;;
62788;SDS011;48826;42.016;21.454;2022-12-18T16:19:39;18.20;;;13.03;;
62788;SDS011;48826;42.016;21.454;2022-12-18T16:22:04;21.87;;;13.53;;
62788;SDS011;48826;42.016;21.454;2022-12-18T16:24:31;22.33;;;14.20;;
62788;SDS011;48826;42.016;21.454;2022-12-18T16:26:58;23.53;;;14.73;;
62788;SDS011;48826;42.016;21.454;2022-12-18T16:29:25;22.63;;;15.00;;
62788;SDS011;48826;42.016;21.454;2022-12-18T16:31:55;24.33;;;16.30;;
62788;SDS011;48826;42.016;21.454;2022-12-18T16:34:25;25.57;;;16.83;;
62788;SDS011;48826;42.016;21.454;2022-12-18T16:36:56;27.30;;;16.63;;
62788;SDS011;48826;42.016;21.454;2022-12-18T16:39:24;29.10;;;17.43;;
62788;SDS011;48826;42.016;21.454;2022-12-18T16:41:50;31.23;;;20.37;;
62788;SDS011;48826;42.016;21.454;2022-12-18T16:44:15;35.30;;;21.17;;
62788;SDS011;48826;42.016;21.454;2022-12-18T16:46:41;20.77;;;14.47;;